Time;durP1;ratioP1;P1;durP2;ratioP2;P2;SDS_P1;SDS_P2;PMS_P1;PMS_P2;Temp;Humidity;BMP_temperature;BMP_pressure;BME280_temperature;BME280_humidity;BME280_pressure;Samples;Min_cycle;Max_cycle;Signal;HPM_P1;HPM_P2
2022/12/08 00:01:33;;;;;;;1.05;0.75;;;14.50;62.60;;;;;;5052356;28;20529;-78
2022/12/08 00:04:01;;;;;;;0.73;0.60;;;14.50;62.70;;;;;;5051034;28;20438;-78
2022/12/08 00:09:23;;;;;;;0.70;0.60;;;14.50;62.80;;;;;;5052583;28;20058;-78
2022/12/08 00:12:09;;;;;;;1.45;0.63;;;14.40;62.80;;;;;;5052301;28;20026;-79
2022/12/08 00:14:37;;;;;;;2.65;0.70;;;14.40;62.80;;;;;;5052273;28;20499;-78
2022/12/08 00:17:05;;;;;;;1.73;0.73;;;14.40;62.80;;;;;;5050568;28;20107;-78
2022/12/08 00:19:31;;;;;;;0.82;0.70;;;14.40;62.90;;;;;;5052028;28;20025;-77
2022/12/08 00:21:58;;;;;;;0.75;0.40;;;14.50;62.90;;;;;;5052300;28;20021;-77
2022/12/08 00:24:28;;;;;;;0.85;0.60;;;14.40;62.90;;;;;;5052014;28;20154;-77
2022/12/08 00:26:53;;;;;;;0.95;0.50;;;14.40;62.90;;;;;;5050635;28;20029;-77
2022/12/08 00:29:19;;;;;;;0.85;0.60;;;14.40;62.90;;;;;;5052023;28;20013;-77
2022/12/08 00:31:45;;;;;;;1.73;0.77;;;14.40;63.00;;;;;;5052044;28;20452;-78
2022/12/08 00:34:14;;;;;;;0.80;0.50;;;14.40;62.90;;;;;;5050774;28;20021;-79
2022/12/08 00:36:40;;;;;;;1.10;0.50;;;14.40;62.90;;;;;;5052432;28;20025;-79
2022/12/08 00:39:06;;;;;;;1.45;0.70;;;14.40;62.90;;;;;;5052020;28;20037;-79
2022/12/08 00:44:17;;;;;;;1.45;0.70;;;14.40;62.90;;;;;;5052103;28;20036;-79
2022/12/08 00:46:44;;;;;;;0.93;0.65;;;14.40;63.00;;;;;;5052058;28;20551;-79
2022/12/08 00:49:10;;;;;;;0.57;0.50;;;14.40;62.90;;;;;;5050740;28;20028;-77
2022/12/08 00:51:36;;;;;;;0.88;0.60;;;14.30;62.90;;;;;;5051852;28;20021;-77
2022/12/08 00:54:02;;;;;;;0.88;0.38;;;14.30;62.90;;;;;;5050392;28;20033;-77
2022/12/08 00:56:28;;;;;;;0.70;0.40;;;14.30;62.90;;;;;;5051771;28;20021;-77
2022/12/08 00:58:54;;;;;;;0.40;0.38;;;14.30;63.00;;;;;;5050360;28;20120;-77
2022/12/08 01:01:19;;;;;;;0.70;0.60;;;14.80;63.10;;;;;;5054154;28;20021;-77
2022/12/08 01:03:45;;;;;;;1.55;0.60;;;14.30;62.90;;;;;;5055554;28;20537;-77
2022/12/08 01:06:11;;;;;;;1.10;0.70;;;14.30;62.90;;;;;;5055509;28;20044;-77
2022/12/08 01:08:38;;;;;;;0.40;0.40;;;14.30;62.90;;;;;;5055553;28;20033;-77
2022/12/08 01:11:05;;;;;;;0.57;0.50;;;14.30;62.80;;;;;;5054128;28;20021;-77
2022/12/08 01:13:32;;;;;;;0.70;0.50;;;14.30;62.80;;;;;;5054017;28;20522;-77
2022/12/08 01:15:57;;;;;;;0.52;0.30;;;14.30;62.80;;;;;;5055264;28;20020;-77
2022/12/08 01:18:23;;;;;;;1.05;0.70;;;14.30;62.80;;;;;;5054980;28;20045;-77
2022/12/08 01:20:49;;;;;;;0.40;0.30;;;14.30;62.80;;;;;;5055270;28;20108;-77
2022/12/08 01:23:14;;;;;;;0.82;0.40;;;14.30;62.70;;;;;;5055225;28;20415;-77
2022/12/08 01:25:40;;;;;;;0.93;0.55;;;14.30;62.80;;;;;;5055293;28;20040;-79
2022/12/08 01:28:06;;;;;;;0.50;0.30;;;;;;;;;;5055346;28;20021;-79
2022/12/08 01:30:31;;;;;;;1.25;0.60;;;14.30;62.20;;;;;;5055329;28;20028;-79
2022/12/08 01:32:57;;;;;;;0.57;0.38;;;14.20;62.70;;;;;;5055271;28;20082;-79
2022/12/08 01:35:23;;;;;;;0.75;0.40;;;14.20;62.70;;;;;;5053902;28;20525;-79
2022/12/08 01:37:49;;;;;;;0.70;0.30;;;14.20;62.70;;;;;;5055026;28;20025;-79
2022/12/08 01:40:15;;;;;;;0.40;0.40;;;14.20;62.70;;;;;;5055312;28;20025;-79
2022/12/08 01:42:41;;;;;;;1.33;0.40;;;14.20;75.30;;;;;;5055095;28;20499;-79
2022/12/08 01:45:16;;;;;;;0.30;0.30;;;14.20;62.70;;;;;;5055095;28;20036;-79
2022/12/08 01:47:46;;;;;;;1.23;0.45;;;14.20;62.70;;;;;;5053792;28;20032;-79
2022/12/08 01:50:14;;;;;;;0.75;0.50;;;14.20;63.40;;;;;;5054865;28;20107;-79
2022/12/08 01:52:45;;;;;;;0.30;0.30;;;14.20;62.60;;;;;;5054785;28;20021;-78
2022/12/08 01:55:20;;;;;;;0.75;0.50;;;14.20;62.50;;;;;;5053445;28;20071;-79
2022/12/08 01:57:49;;;;;;;0.63;0.50;;;14.10;62.50;;;;;;5054771;28;20048;-79
2022/12/08 02:00:18;;;;;;;0.85;0.20;;;14.20;62.60;;;;;;5053422;28;20021;-79
2022/12/08 02:03:00;;;;;;;0.98;0.60;;;14.10;62.20;;;;;;5054728;28;20040;-79
2022/12/08 02:05:29;;;;;;;0.65;0.40;;;14.10;62.30;;;;;;5054729;28;20471;-79
2022/12/08 02:07:57;;;;;;;0.70;0.50;;;14.10;62.40;;;;;;5054643;28;20028;-79
2022/12/08 02:10:26;;;;;;;0.38;0.20;;;14.10;61.90;;;;;;5054526;28;20395;-79
2022/12/08 02:12:55;;;;;;;0.50;0.30;;;14.00;62.40;;;;;;5054189;28;20032;-79
2022/12/08 02:15:39;;;;;;;1.00;0.40;;;14.10;62.40;;;;;;5054465;28;20099;-79
2022/12/08 02:18:16;;;;;;;0.85;0.28;;;14.10;62.40;;;;;;5054174;28;20041;-78
2022/12/08 02:20:57;;;;;;;0.63;0.40;;;14.10;62.40;;;;;;5054298;28;20037;-77
2022/12/08 02:23:41;;;;;;;;;;;14.10;62.40;;;;;;5054707;28;20029;-79
2022/12/08 02:26:33;;;;;;;0.20;0.20;;;14.10;62.40;;;;;;5054175;28;19905;-79
2022/12/08 02:29:40;;;;;;;0.38;0.28;;;14.10;62.40;;;;;;5054234;28;20025;-78
2022/12/08 02:32:30;;;;;;;1.13;0.30;;;14.00;62.40;;;;;;5052938;28;20475;-79
2022/12/08 02:35:08;;;;;;;0.20;0.20;;;14.10;62.50;;;;;;5054145;28;20033;-79
2022/12/08 02:37:45;;;;;;;0.55;0.40;;;14.10;62.50;;;;;;5052653;28;20047;-79
2022/12/08 02:40:22;;;;;;;0.30;0.30;;;14.10;63.10;;;;;;5054048;28;20025;-79
2022/12/08 02:43:04;;;;;;;0.25;0.20;;;14.10;62.50;;;;;;5054029;28;20053;-79
2022/12/08 02:45:53;;;;;;;0.73;0.32;;;14.00;62.40;;;;;;5053882;28;20035;-79
2022/12/08 02:48:19;;;;;;;0.30;0.30;;;14.00;62.30;;;;;;5053601;28;20048;-79
2022/12/08 02:50:44;;;;;;;0.43;0.25;;;14.00;62.40;;;;;;5053743;28;20151;-78
2022/12/08 02:53:10;;;;;;;0.55;0.40;;;14.00;62.40;;;;;;5052373;28;20033;-79
2022/12/08 02:55:44;;;;;;;1.00;0.40;;;14.00;62.40;;;;;;5053683;28;20041;-78
2022/12/08 02:58:27;;;;;;;1.40;0.30;;;14.00;61.90;;;;;;5053612;28;20043;-78
2022/12/08 03:01:15;;;;;;;0.60;0.30;;;14.00;62.40;;;;;;5053551;28;20052;-78
2022/12/08 03:04:01;;;;;;;1.40;0.40;;;14.00;62.40;;;;;;5053476;28;20017;-79
2022/12/08 03:06:37;;;;;;;0.52;0.38;;;14.00;62.50;;;;;;5053450;28;20108;-78
2022/12/08 03:09:16;;;;;;;0.47;0.20;;;14.00;62.60;;;;;;5053365;28;20020;-78
2022/12/08 03:11:54;;;;;;;0.38;0.30;;;14.00;62.60;;;;;;5053321;28;20021;-78
2022/12/08 03:14:21;;;;;;;0.52;0.22;;;14.00;62.60;;;;;;5053306;28;20356;-79
2022/12/08 03:16:51;;;;;;;0.75;0.30;;;14.00;63.30;;;;;;5053257;28;20036;-79
2022/12/08 03:19:22;;;;;;;2.92;0.22;;;14.00;62.70;;;;;;5053028;28;20056;-79
2022/12/08 03:21:51;;;;;;;0.20;0.20;;;14.00;62.70;;;;;;5053149;28;20017;-78
2022/12/08 03:24:20;;;;;;;0.32;0.32;;;13.90;62.60;;;;;;5052429;28;20033;-78
2022/12/08 03:26:50;;;;;;;0.30;0.20;;;14.00;62.60;;;;;;5053307;28;20025;-79
2022/12/08 03:29:17;;;;;;;0.88;0.30;;;14.00;62.60;;;;;;5053127;28;20120;-79
2022/12/08 03:31:52;;;;;;;0.22;0.20;;;14.00;62.60;;;;;;5052966;28;20433;-78
2022/12/08 03:34:20;;;;;;;1.17;0.40;;;14.00;62.60;;;;;;5053081;28;20033;-76
2022/12/08 03:36:46;;;;;;;0.85;0.50;;;13.90;62.60;;;;;;5051484;28;20119;-76
2022/12/08 03:39:11;;;;;;;0.30;0.30;;;13.90;62.60;;;;;;5052695;28;20116;-76
2022/12/08 03:41:37;;;;;;;0.77;0.20;;;13.90;62.60;;;;;;5052598;28;20028;-76
2022/12/08 03:44:03;;;;;;;0.20;0.20;;;13.90;62.70;;;;;;5052626;28;20435;-76
2022/12/08 03:46:30;;;;;;;0.35;0.30;;;13.90;62.70;;;;;;5052521;28;20045;-76
2022/12/08 03:48:56;;;;;;;0.95;0.55;;;13.90;62.70;;;;;;5052465;28;20056;-76
2022/12/08 03:51:22;;;;;;;0.40;0.30;;;13.90;62.70;;;;;;5052590;28;20032;-76
2022/12/08 03:53:48;;;;;;;0.30;0.20;;;13.90;62.80;;;;;;5052347;28;20087;-79
2022/12/08 03:56:18;;;;;;;0.50;0.30;;;13.90;62.80;;;;;;5052624;28;20025;-78
2022/12/08 03:58:44;;;;;;;0.32;0.20;;;13.90;62.80;;;;;;5052447;28;20040;-78
2022/12/08 04:01:11;;;;;;;0.20;0.20;;;13.90;62.80;;;;;;5052444;28;20029;-80
2022/12/08 04:03:36;;;;;;;0.65;0.30;;;13.90;62.80;;;;;;5052421;28;20094;-78
2022/12/08 04:06:02;;;;;;;0.73;0.38;;;13.90;62.80;;;;;;5052388;28;20475;-78
2022/12/08 04:08:28;;;;;;;0.80;0.30;;;13.90;62.90;;;;;;5052364;28;20025;-78
2022/12/08 04:10:53;;;;;;;1.27;0.30;;;13.90;62.90;;;;;;5051122;28;20017;-78
2022/12/08 04:13:19;;;;;;;0.40;0.40;;;13.90;62.90;;;;;;5051088;28;20365;-75
2022/12/08 04:15:46;;;;;;;0.50;0.20;;;13.90;62.80;;;;;;5052152;28;20047;-75
2022/12/08 04:18:12;;;;;;;0.45;0.30;;;13.90;63.50;;;;;;5051849;28;20515;-75
2022/12/08 04:20:42;;;;;;;0.63;0.32;;;13.90;63.60;;;;;;5052096;28;20033;-75
2022/12/08 04:23:08;;;;;;;0.20;0.20;;;13.90;62.90;;;;;;5051984;28;20090;-76
2022/12/08 04:25:35;;;;;;;0.30;0.20;;;13.90;62.90;;;;;;5051977;28;20029;-75
2022/12/08 04:28:01;;;;;;;1.00;0.32;;;13.90;62.90;;;;;;5051889;28;20014;-76
2022/12/08 04:30:26;;;;;;;0.65;0.30;;;13.90;62.90;;;;;;5050730;28;20029;-78
2022/12/08 04:32:52;;;;;;;1.23;0.30;;;13.80;62.80;;;;;;5050791;28;20023;-78
2022/12/08 04:35:18;;;;;;;1.80;0.40;;;13.80;62.90;;;;;;5054679;28;20384;-78
2022/12/08 04:37:43;;;;;;;0.77;0.40;;;13.90;62.90;;;;;;5054884;28;20021;-78
2022/12/08 04:40:10;;;;;;;0.25;0.25;;;13.80;62.90;;;;;;5054830;28;20127;-78
2022/12/08 04:42:36;;;;;;;0.40;0.30;;;13.90;63.00;;;;;;5054725;28;20067;-78
2022/12/08 04:45:02;;;;;;;0.70;0.50;;;13.90;63.00;;;;;;5056173;28;20037;-78
2022/12/08 04:47:28;;;;;;;0.22;0.22;;;13.90;62.90;;;;;;5055990;28;20108;-78
2022/12/08 04:49:53;;;;;;;0.47;0.30;;;13.90;63.00;;;;;;5054722;28;20134;-78
2022/12/08 04:52:20;;;;;;;0.93;0.40;;;13.90;75.70;;;;;;5054672;28;20482;-78
2022/12/08 04:54:45;;;;;;;0.20;0.20;;;13.90;63.00;;;;;;5054650;28;20491;-78
2022/12/08 04:57:11;;;;;;;4.25;0.68;;;13.90;63.00;;;;;;5054565;28;20032;-78
2022/12/08 04:59:37;;;;;;;0.30;0.30;;;13.90;63.00;;;;;;5055832;28;20138;-77
2022/12/08 05:02:02;;;;;;;0.45;0.32;;;13.90;63.00;;;;;;5055856;28;20488;-78
2022/12/08 05:04:28;;;;;;;0.40;0.30;;;13.90;63.00;;;;;;5055827;28;20033;-78
2022/12/08 05:06:54;;;;;;;1.20;0.60;;;13.90;63.10;;;;;;5054437;28;20021;-78
2022/12/08 05:09:19;;;;;;;0.60;0.40;;;13.90;63.10;;;;;;5054354;28;20056;-78
2022/12/08 05:11:45;;;;;;;1.25;0.50;;;13.90;63.10;;;;;;5054296;28;20059;-78
2022/12/08 05:14:12;;;;;;;1.05;0.40;;;13.90;63.10;;;;;;5054255;28;20033;-78
2022/12/08 05:16:38;;;;;;;0.40;0.40;;;13.90;63.10;;;;;;5054194;28;20541;-77
2022/12/08 05:19:04;;;;;;;0.55;0.40;;;13.90;63.10;;;;;;5055188;28;20057;-78
2022/12/08 05:21:30;;;;;;;0.82;0.40;;;13.90;63.20;;;;;;5055408;28;20021;-78
2022/12/08 05:23:55;;;;;;;0.60;0.32;;;13.90;63.20;;;;;;5054125;28;20055;-78
2022/12/08 05:26:21;;;;;;;1.40;0.50;;;13.90;63.20;;;;;;5055603;28;20060;-77
2022/12/08 05:28:47;;;;;;;0.80;0.40;;;13.90;63.30;;;;;;5055235;28;20036;-76
2022/12/08 05:31:14;;;;;;;0.73;0.50;;;14.00;76.20;;;;;;5053835;28;20025;-77
2022/12/08 05:33:41;;;;;;;0.73;0.47;;;13.90;63.40;;;;;;5053803;28;20017;-77
2022/12/08 05:36:07;;;;;;;1.10;0.40;;;13.90;64.20;;;;;;5054985;28;20025;-77
2022/12/08 05:38:33;;;;;;;0.80;0.73;;;13.90;63.60;;;;;;5053677;28;20069;-77
2022/12/08 05:40:59;;;;;;;1.23;0.90;;;13.90;63.70;;;;;;5053732;28;20057;-77
2022/12/08 05:43:24;;;;;;;1.23;1.10;;;14.20;77.10;;;;;;5054822;28;20024;-77
2022/12/08 05:45:50;;;;;;;1.35;1.35;;;13.90;63.70;;;;;;5054257;28;20021;-77
2022/12/08 05:48:15;;;;;;;2.20;2.10;;;13.90;63.80;;;;;;5054718;28;20498;-77
2022/12/08 05:50:48;;;;;;;3.20;3.00;;;14.00;76.60;;;;;;5054731;28;20067;-77
2022/12/08 05:53:15;;;;;;;4.28;4.07;;;13.90;64.00;;;;;;5053363;28;20021;-76
2022/12/08 05:55:41;;;;;;;4.97;4.68;;;14.00;64.10;;;;;;5053313;28;20033;-76
2022/12/08 05:58:15;;;;;;;5.60;5.20;;;13.90;64.20;;;;;;5054579;28;20040;-77
2022/12/08 06:00:41;;;;;;;6.90;6.50;;;14.00;64.80;;;;;;5053390;28;20501;-76
2022/12/08 06:03:07;;;;;;;8.65;8.05;;;14.00;64.30;;;;;;5054625;28;20056;-79
2022/12/08 06:05:33;;;;;;;9.07;8.48;;;13.90;64.20;;;;;;5053144;28;20087;-79
2022/12/08 06:07:59;;;;;;;11.10;10.30;;;13.90;64.40;;;;;;5054415;28;20032;-79
2022/12/08 06:10:24;;;;;;;11.88;10.98;;;14.00;64.30;;;;;;5054365;28;20033;-79
2022/12/08 06:12:50;;;;;;;13.02;12.02;;;13.90;64.40;;;;;;5054419;28;20032;-80
2022/12/08 06:15:16;;;;;;;13.45;12.52;;;14.00;64.50;;;;;;5053242;28;20028;-80
2022/12/08 06:17:41;;;;;;;14.32;13.30;;;13.90;64.50;;;;;;5054219;28;20049;-80
2022/12/08 06:20:07;;;;;;;15.27;14.18;;;13.90;76.80;;;;;;5054380;28;20033;-81
2022/12/08 06:22:33;;;;;;;15.57;14.38;;;;;;;;;;5054405;28;20083;-80
2022/12/08 06:24:59;;;;;;;15.45;14.35;;;13.90;63.90;;;;;;5054089;28;20403;-80
2022/12/08 06:27:25;;;;;;;15.10;14.00;;;14.00;64.50;;;;;;5054054;28;20079;-80
2022/12/08 06:29:50;;;;;;;15.80;14.60;;;14.00;64.40;;;;;;5053999;28;20029;-80
2022/12/08 06:32:17;;;;;;;13.98;12.98;;;14.00;64.50;;;;;;5053971;28;20032;-80
2022/12/08 06:34:42;;;;;;;13.45;12.35;;;13.90;64.70;;;;;;5054188;28;20184;-85
2022/12/08 06:37:08;;;;;;;13.40;12.40;;;13.90;64.40;;;;;;5052805;28;20191;-82
2022/12/08 06:39:33;;;;;;;12.88;11.98;;;14.00;64.40;;;;;;5053758;28;20047;-79
2022/12/08 06:44:43;;;;;;;12.27;11.38;;;13.90;64.30;;;;;;5053782;28;20129;-79
2022/12/08 06:47:09;;;;;;;12.73;11.80;;;13.90;64.30;;;;;;5053854;28;20112;-81
2022/12/08 06:49:34;;;;;;;10.30;9.60;;;13.90;64.30;;;;;;5055811;28;20037;-80
2022/12/08 06:52:00;;;;;;;11.18;10.38;;;13.90;64.40;;;;;;5053577;28;20072;-78
2022/12/08 06:54:25;;;;;;;11.15;10.13;;;14.30;77.00;;;;;;5053508;28;20040;-77
2022/12/08 06:56:51;;;;;;;10.38;9.48;;;13.90;64.20;;;;;;5053489;28;20135;-75
2022/12/08 06:59:18;;;;;;;9.52;8.85;;;13.90;64.20;;;;;;5052266;28;20036;-77
2022/12/08 07:01:44;;;;;;;9.20;8.60;;;13.90;64.10;;;;;;5053156;28;20024;-76
2022/12/08 07:04:10;;;;;;;9.40;8.70;;;13.90;64.20;;;;;;5053318;28;20395;-78
2022/12/08 07:06:35;;;;;;;8.32;7.72;;;13.90;64.20;;;;;;5053291;28;20021;-77
2022/12/08 07:09:01;;;;;;;7.70;7.20;;;;;;;;;;5051903;28;20025;-78
2022/12/08 07:11:27;;;;;;;7.35;6.85;;;13.90;63.60;;;;;;5053041;28;20033;-77
2022/12/08 07:13:55;;;;;;;7.45;6.95;;;14.00;76.70;;;;;;5053297;28;20037;-78
2022/12/08 07:16:21;;;;;;;7.40;6.80;;;13.90;64.10;;;;;;5053137;28;20013;-78
2022/12/08 07:18:47;;;;;;;7.10;6.60;;;13.90;64.10;;;;;;5052834;28;20080;-79
2022/12/08 07:21:14;;;;;;;6.90;6.30;;;13.90;64.00;;;;;;5053273;28;20052;-78
2022/12/08 07:23:40;;;;;;;6.05;5.65;;;13.90;64.00;;;;;;5052919;28;20017;-79
2022/12/08 07:26:07;;;;;;;5.97;5.57;;;13.90;64.00;;;;;;5052935;28;20086;-78
2022/12/08 07:28:34;;;;;;;6.30;5.70;;;13.90;63.90;;;;;;5052840;28;20040;-79
2022/12/08 07:31:00;;;;;;;6.38;5.88;;;13.90;64.50;;;;;;5052787;28;20076;-77
2022/12/08 07:33:26;;;;;;;5.85;5.45;;;13.90;64.50;;;;;;5052856;28;20391;-78
2022/12/08 07:36:00;;;;;;;5.45;5.05;;;13.90;63.80;;;;;;5051891;28;20029;-77
2022/12/08 07:38:27;;;;;;;5.88;5.38;;;13.90;64.50;;;;;;5051557;28;20025;-77
2022/12/08 07:40:53;;;;;;;5.13;4.72;;;13.90;63.70;;;;;;5052583;28;20037;-78
2022/12/08 07:43:19;;;;;;;4.57;4.28;;;13.90;63.70;;;;;;5051427;28;20028;-82
2022/12/08 07:45:45;;;;;;;5.10;4.70;;;13.90;63.70;;;;;;5052608;28;20107;-78
2022/12/08 07:48:11;;;;;;;4.18;3.88;;;13.90;63.70;;;;;;5052636;28;20040;-83
2022/12/08 07:50:37;;;;;;;4.22;3.92;;;13.90;63.70;;;;;;5052535;28;20028;-82
2022/12/08 07:53:03;;;;;;;3.55;3.35;;;13.90;63.60;;;;;;5052428;28;20033;-81
2022/12/08 07:55:28;;;;;;;4.20;3.90;;;13.90;63.60;;;;;;5052653;28;20105;-80
2022/12/08 07:57:54;;;;;;;3.50;3.20;;;13.90;63.60;;;;;;5052514;28;20040;-80
2022/12/08 08:00:20;;;;;;;2.85;2.65;;;13.90;63.40;;;;;;5052499;28;20028;-81
2022/12/08 08:02:46;;;;;;;2.85;2.70;;;13.90;63.30;;;;;;5052360;28;20435;-81
2022/12/08 08:05:11;;;;;;;2.58;2.47;;;13.90;63.90;;;;;;5052762;28;20045;-81
2022/12/08 08:07:38;;;;;;;2.80;2.60;;;13.90;63.30;;;;;;5053020;28;20033;-82
2022/12/08 08:10:05;;;;;;;2.50;2.30;;;13.80;63.20;;;;;;5052869;28;20025;-83
2022/12/08 08:12:31;;;;;;;2.38;2.17;;;13.90;63.20;;;;;;5053251;28;20063;-81
2022/12/08 08:14:57;;;;;;;2.22;2.03;;;13.90;63.10;;;;;;5053019;28;20024;-82
2022/12/08 08:17:23;;;;;;;1.80;1.70;;;13.90;63.10;;;;;;5052577;28;20090;-81
2022/12/08 08:19:49;;;;;;;1.90;1.80;;;13.90;63.00;;;;;;5053179;28;20110;-82
2022/12/08 08:22:15;;;;;;;1.73;1.63;;;13.90;63.00;;;;;;5052890;28;20025;-83
2022/12/08 08:24:41;;;;;;;1.48;1.38;;;13.80;62.90;;;;;;5052787;28;20097;-82
2022/12/08 08:27:06;;;;;;;1.75;1.65;;;13.80;62.80;;;;;;5052838;28;20029;-83
2022/12/08 08:29:32;;;;;;;1.73;1.50;;;13.80;62.80;;;;;;5053177;28;20337;-84
2022/12/08 08:31:58;;;;;;;1.50;1.40;;;13.80;62.80;;;;;;5053121;28;20027;-83
2022/12/08 08:34:24;;;;;;;1.40;1.30;;;13.90;62.80;;;;;;5053238;28;20025;-83
2022/12/08 08:36:49;;;;;;;1.40;1.30;;;13.90;62.80;;;;;;5052659;28;20021;-83
2022/12/08 08:39:15;;;;;;;3.05;1.13;;;13.80;62.80;;;;;;5053022;28;20117;-82
2022/12/08 08:41:40;;;;;;;1.40;1.10;;;13.80;62.70;;;;;;5052693;28;20495;-83
2022/12/08 08:44:06;;;;;;;1.42;1.30;;;13.80;62.80;;;;;;5052704;28;20029;-81
2022/12/08 08:46:32;;;;;;;1.10;1.00;;;13.80;62.70;;;;;;5052996;28;20078;-82
2022/12/08 08:48:58;;;;;;;1.75;1.17;;;13.80;62.60;;;;;;5052964;28;20483;-83
2022/12/08 08:51:23;;;;;;;0.77;0.70;;;13.80;62.60;;;;;;5054128;28;20029;-82
2022/12/08 08:53:49;;;;;;;0.80;0.80;;;13.80;62.60;;;;;;5052777;28;20102;-83
2022/12/08 08:56:18;;;;;;;0.93;0.93;;;13.80;62.60;;;;;;5052698;28;20025;-82
2022/12/08 08:58:45;;;;;;;0.75;0.60;;;13.80;62.50;;;;;;5052562;28;20029;-82
2022/12/08 09:01:20;;;;;;;1.40;0.73;;;13.80;62.50;;;;;;5052381;28;20021;-81
2022/12/08 09:03:46;;;;;;;0.70;0.70;;;13.80;62.50;;;;;;5051921;28;20031;-81
2022/12/08 09:06:13;;;;;;;1.75;0.90;;;13.80;63.30;;;;;;5052347;28;20104;-82
2022/12/08 09:08:40;;;;;;;0.80;0.80;;;13.80;62.50;;;;;;5052467;28;20036;-81
2022/12/08 09:11:06;;;;;;;0.52;0.52;;;13.80;62.50;;;;;;5052440;28;20052;-81
2022/12/08 09:13:31;;;;;;;2.17;0.70;;;13.80;62.60;;;;;;5051389;28;20060;-81
2022/12/08 09:16:00;;;;;;;0.57;0.50;;;13.80;63.10;;;;;;5050659;28;20025;-81
2022/12/08 09:18:26;;;;;;;0.77;0.70;;;13.80;62.50;;;;;;5051808;28;20049;-81
2022/12/08 09:20:52;;;;;;;0.45;0.45;;;13.70;62.60;;;;;;5052141;28;20036;-81
2022/12/08 09:23:18;;;;;;;0.93;0.52;;;13.80;62.50;;;;;;5056073;28;20113;-83
2022/12/08 09:25:44;;;;;;;0.70;0.38;;;13.70;62.50;;;;;;5055756;28;20057;-82
2022/12/08 09:28:11;;;;;;;0.60;0.45;;;13.80;62.60;;;;;;5056514;28;20480;-81
2022/12/08 09:30:36;;;;;;;0.57;0.30;;;13.70;62.50;;;;;;5056174;28;20067;-81
2022/12/08 09:33:02;;;;;;;0.90;0.45;;;13.70;62.50;;;;;;5055605;28;20033;-80
2022/12/08 09:35:28;;;;;;;2.85;0.70;;;13.80;62.80;;;;;;5055028;28;20420;-80
2022/12/08 09:37:54;;;;;;;0.60;0.40;;;13.70;62.70;;;;;;5054915;28;20032;-79
2022/12/08 09:40:22;;;;;;;0.85;0.50;;;13.70;62.70;;;;;;5054929;28;20029;-79
2022/12/08 09:43:12;;;;;;;0.98;0.55;;;13.80;62.80;;;;;;5054968;28;20017;-79
2022/12/08 09:45:38;;;;;;;1.80;0.60;;;13.70;62.80;;;;;;5054963;28;20442;-79
2022/12/08 09:48:03;;;;;;;2.13;0.40;;;13.70;62.90;;;;;;5054785;28;20104;-79
2022/12/08 09:50:39;;;;;;;0.50;0.40;;;13.70;62.90;;;;;;5054772;28;20025;-79
2022/12/08 09:53:11;;;;;;;0.73;0.40;;;13.70;62.80;;;;;;5054826;28;20383;-79
2022/12/08 09:55:41;;;;;;;0.47;0.40;;;13.80;62.90;;;;;;5054908;28;20376;-83
2022/12/08 09:58:23;;;;;;;1.08;0.60;;;13.70;62.80;;;;;;5054501;28;20029;-83
2022/12/08 10:00:48;;;;;;;1.67;1.20;;;13.70;62.90;;;;;;5054731;28;20043;-81
2022/12/08 10:03:14;;;;;;;1.58;0.50;;;13.70;62.80;;;;;;5054607;28;20475;-76
2022/12/08 10:06:16;;;;;;;0.50;0.47;;;13.70;63.50;;;;;;5053331;28;20546;-76
2022/12/08 10:08:50;;;;;;;0.60;0.35;;;13.70;62.80;;;;;;5044144;28;20419;-76
2022/12/08 10:11:42;;;;;;;0.40;0.40;;;13.70;63.40;;;;;;5054493;28;20017;-76
2022/12/08 10:14:32;;;;;;;0.90;0.38;;;13.70;62.80;;;;;;5054544;28;20499;-76
2022/12/08 10:17:20;;;;;;;1.52;0.50;;;13.70;62.80;;;;;;5054297;28;20028;-76
2022/12/08 10:19:47;;;;;;;0.63;0.63;;;13.70;62.80;;;;;;5053101;28;20036;-76
2022/12/08 10:22:25;;;;;;;0.50;0.40;;;13.70;62.80;;;;;;5054366;28;20040;-76
2022/12/08 10:25:04;;;;;;;2.15;0.40;;;13.70;62.80;;;;;;5054223;28;20036;-76
2022/12/08 10:27:32;;;;;;;0.30;0.30;;;13.70;62.80;;;;;;5054184;28;20029;-76
2022/12/08 10:29:58;;;;;;;0.47;0.40;;;13.70;62.90;;;;;;5054145;28;20021;-76
2022/12/08 10:32:33;;;;;;;1.23;0.55;;;13.70;63.20;;;;;;5052613;28;20028;-77
2022/12/08 10:35:03;;;;;;;0.43;0.38;;;13.70;62.30;;;;;;5054166;28;20017;-77
2022/12/08 10:37:29;;;;;;;0.40;0.40;;;13.70;62.90;;;;;;5054108;28;20029;-79
2022/12/08 10:40:16;;;;;;;0.77;0.40;;;13.70;62.80;;;;;;5054027;28;20393;-76
2022/12/08 10:42:45;;;;;;;2.58;0.52;;;13.70;62.80;;;;;;5053935;28;20028;-77
2022/12/08 10:45:19;;;;;;;0.47;0.33;;;13.70;62.90;;;;;;5053879;28;20033;-77
2022/12/08 10:47:59;;;;;;;0.32;0.30;;;13.70;62.90;;;;;;5054052;28;20025;-77
2022/12/08 10:50:40;;;;;;;1.02;0.47;;;13.70;62.90;;;;;;5053779;28;20021;-77
2022/12/08 10:53:11;;;;;;;0.22;0.20;;;13.70;62.90;;;;;;5053732;28;20028;-77
2022/12/08 10:55:44;;;;;;;1.13;0.52;;;13.70;62.90;;;;;;5053618;28;20035;-78
2022/12/08 10:58:41;;;;;;;1.05;0.50;;;13.70;62.80;;;;;;5053545;28;20044;-77
2022/12/08 11:01:26;;;;;;;0.50;0.50;;;13.70;62.80;;;;;;5049078;28;20087;-79
2022/12/08 11:04:03;;;;;;;1.65;0.30;;;13.70;62.80;;;;;;5053626;28;20025;-78
2022/12/08 11:06:30;;;;;;;0.40;0.40;;;13.90;75.70;;;;;;5053557;28;20041;-78
2022/12/08 11:09:17;;;;;;;0.70;0.50;;;13.70;62.90;;;;;;5053571;28;20040;-78
2022/12/08 11:11:48;;;;;;;0.70;0.50;;;13.70;62.90;;;;;;5053273;28;20028;-78
2022/12/08 11:14:22;;;;;;;0.75;0.50;;;13.70;63.00;;;;;;5053460;28;20055;-81
2022/12/08 11:16:49;;;;;;;0.60;0.57;;;13.60;62.90;;;;;;5053336;28;20104;-76
2022/12/08 11:19:18;;;;;;;0.80;0.57;;;13.70;63.00;;;;;;5052922;28;20041;-77
2022/12/08 11:21:44;;;;;;;1.88;0.50;;;13.60;62.90;;;;;;5052878;28;20021;-77
2022/12/08 11:24:24;;;;;;;0.75;0.63;;;13.60;62.90;;;;;;5052986;28;20032;-77
2022/12/08 11:26:57;;;;;;;2.05;0.60;;;13.60;62.90;;;;;;5052986;28;20025;-77
2022/12/08 11:29:22;;;;;;;0.60;0.60;;;13.60;63.00;;;;;;5052987;28;20033;-77
2022/12/08 11:31:58;;;;;;;1.02;0.47;;;13.60;63.00;;;;;;5052914;28;20508;-77
2022/12/08 11:34:34;;;;;;;1.00;0.60;;;13.60;63.00;;;;;;5053079;28;20036;-82
2022/12/08 11:37:01;;;;;;;1.02;0.40;;;13.60;63.00;;;;;;5053035;28;20017;-82
2022/12/08 11:39:31;;;;;;;0.70;0.52;;;13.60;63.00;;;;;;5053020;28;20123;-83
2022/12/08 11:41:58;;;;;;;1.15;0.50;;;13.60;63.00;;;;;;5053239;28;20455;-83
2022/12/08 11:44:37;;;;;;;2.03;0.50;;;13.60;63.00;;;;;;5052007;28;20048;-83
2022/12/08 11:47:22;;;;;;;0.60;0.60;;;13.60;63.00;;;;;;5052713;28;20017;-81
2022/12/08 11:50:00;;;;;;;0.63;0.63;;;13.60;63.00;;;;;;5052647;28;20029;-81
2022/12/08 11:52:50;;;;;;;0.93;0.68;;;13.60;63.00;;;;;;5052625;28;20027;-77
2022/12/08 11:55:35;;;;;;;1.10;0.77;;;13.60;63.00;;;;;;5052567;28;20056;-77
2022/12/08 11:58:27;;;;;;;0.57;0.52;;;13.60;63.00;;;;;;5051338;28;20436;-77
2022/12/08 12:00:53;;;;;;;0.93;0.52;;;;;;;;;;5052565;28;20044;-77
2022/12/08 12:03:28;;;;;;;0.70;0.50;;;13.60;62.40;;;;;;5052483;28;20029;-77
2022/12/08 12:06:09;;;;;;;0.65;0.57;;;13.60;63.00;;;;;;5052445;28;20036;-76
2022/12/08 12:08:54;;;;;;;1.45;0.65;;;13.60;63.00;;;;;;5052435;28;20025;-76
2022/12/08 12:14:27;;;;;;;1.80;0.60;;;13.50;63.00;;;;;;5052519;28;20561;-77
2022/12/08 12:17:04;;;;;;;2.15;0.60;;;13.50;63.00;;;;;;5052122;28;20445;-78
2022/12/08 12:19:35;;;;;;;0.88;0.57;;;13.50;63.00;;;;;;5052040;28;20499;-76
2022/12/08 12:22:22;;;;;;;1.05;0.80;;;13.80;76.50;;;;;;5052072;28;20052;-76
2022/12/08 12:24:50;;;;;;;0.93;0.50;;;13.50;75.50;;;;;;5051961;28;20025;-77
2022/12/08 12:27:40;;;;;;;0.70;0.47;;;13.50;63.10;;;;;;5052341;28;20025;-76
2022/12/08 12:30:17;;;;;;;0.65;0.50;;;13.50;63.10;;;;;;5049322;28;20044;-82
2022/12/08 12:32:55;;;;;;;1.70;0.85;;;13.50;63.10;;;;;;5052197;28;20033;-82
2022/12/08 12:35:26;;;;;;;0.73;0.68;;;13.50;63.10;;;;;;5052317;28;20036;-82
2022/12/08 12:37:57;;;;;;;2.25;1.15;;;13.50;63.10;;;;;;5052226;28;20035;-82
2022/12/08 12:40:26;;;;;;;1.90;0.63;;;13.50;63.10;;;;;;5052184;28;20043;-83
2022/12/08 12:42:54;;;;;;;1.40;0.90;;;13.50;63.20;;;;;;5052073;28;20060;-81
2022/12/08 12:45:20;;;;;;;1.20;0.80;;;13.50;63.20;;;;;;5050861;28;20029;-83
2022/12/08 12:47:50;;;;;;;2.30;0.65;;;13.50;63.20;;;;;;5052164;28;20100;-82
2022/12/08 12:50:33;;;;;;;1.58;0.73;;;13.50;63.20;;;;;;5052367;28;20017;-81
2022/12/08 12:53:04;;;;;;;0.60;0.60;;;13.40;63.20;;;;;;5051916;28;20029;-82
2022/12/08 12:55:51;;;;;;;1.20;0.60;;;13.40;63.20;;;;;;5053275;28;20028;-82
2022/12/08 12:58:31;;;;;;;0.80;0.55;;;13.40;63.20;;;;;;5054708;28;20155;-82
2022/12/08 13:01:11;;;;;;;0.50;0.50;;;13.40;63.20;;;;;;5055970;28;20055;-82
2022/12/08 13:03:41;;;;;;;0.70;0.40;;;13.40;63.30;;;;;;5054532;28;20029;-81
2022/12/08 13:06:11;;;;;;;1.70;0.57;;;13.50;77.30;;;;;;5056025;28;20090;-82
2022/12/08 13:08:40;;;;;;;0.57;0.57;;;13.40;63.20;;;;;;5055780;28;20067;-82
2022/12/08 13:11:08;;;;;;;2.65;0.70;;;13.40;63.20;;;;;;5055816;28;20017;-82
2022/12/08 13:13:35;;;;;;;1.40;0.63;;;13.40;63.20;;;;;;5054440;28;20013;-82